createdAt,value
2023-04-09T00:01:19.906Z,98371.59
2023-04-09T00:03:51.098Z,98371.98
2023-04-09T00:06:21.976Z,98373.07
2023-04-09T00:08:49.931Z,98371.83
2023-04-09T00:11:18.297Z,98375.25
2023-04-09T00:13:46.016Z,98373.89
2023-04-09T00:16:13.927Z,98374.37
2023-04-09T00:18:41.880Z,98374.19
2023-04-09T00:21:09.710Z,98374.41
2023-04-09T00:23:40.596Z,98376.05
2023-04-09T00:26:08.464Z,98381.61
2023-04-09T00:28:36.434Z,98385.45
2023-04-09T00:31:04.386Z,98383.31
2023-04-09T00:33:32.276Z,98380.84
2023-04-09T00:36:00.143Z,98379.58
2023-04-09T00:38:28.167Z,98385.69
2023-04-09T00:40:55.922Z,98380.00
2023-04-09T00:43:23.673Z,98378.42
2023-04-09T00:45:51.458Z,98371.20
2023-04-09T00:48:19.215Z,98370.13
2023-04-09T00:50:50.245Z,98367.20
2023-04-09T00:53:18.107Z,98367.00
2023-04-09T00:55:45.933Z,98367.98
2023-04-09T00:58:14.078Z,98368.77
2023-04-09T01:00:41.877Z,98364.75
2023-04-09T01:03:09.871Z,98365.48
2023-04-09T01:05:46.803Z,98367.92
2023-04-09T01:08:14.711Z,98372.59
2023-04-09T01:10:59.352Z,98372.44
2023-04-09T01:13:42.576Z,98380.89
2023-04-09T01:16:12.266Z,98375.59
2023-04-09T01:18:45.095Z,98376.83
2023-04-09T01:21:21.125Z,98376.05
2023-04-09T01:23:57.997Z,98380.05
2023-04-09T01:26:30.862Z,98377.40
2023-04-09T01:29:00.531Z,98378.73
2023-04-09T01:31:29.685Z,98379.08
2023-04-09T01:33:57.684Z,98376.55
2023-04-09T01:36:26.492Z,98376.20
2023-04-09T01:38:55.951Z,98376.03
2023-04-09T01:41:26.850Z,98379.08
2023-04-09T01:43:55.502Z,98376.86
2023-04-09T01:46:24.541Z,98375.64
2023-04-09T01:48:52.753Z,98372.36
2023-04-09T01:51:21.040Z,98372.15
2023-04-09T01:53:49.420Z,98371.64
2023-04-09T01:56:19.823Z,98377.48
2023-04-09T01:58:47.641Z,98378.88
2023-04-09T02:01:30.063Z,98379.92
2023-04-09T02:04:00.513Z,98377.54
2023-04-09T02:06:47.375Z,98376.92
2023-04-09T02:09:17.065Z,98376.80
2023-04-09T02:11:46.333Z,98377.21
2023-04-09T02:14:15.326Z,98378.40
2023-04-09T02:16:43.104Z,98379.45
2023-04-09T02:19:11.859Z,98382.75
2023-04-09T02:21:39.843Z,98381.39
2023-04-09T02:24:07.606Z,98381.36
2023-04-09T02:26:35.571Z,98376.50
2023-04-09T02:29:05.543Z,98370.11
2023-04-09T02:31:33.480Z,98370.07
2023-04-09T02:34:01.493Z,98373.16
2023-04-09T02:36:29.478Z,98366.92
2023-04-09T02:38:57.235Z,98370.10
2023-04-09T02:41:24.980Z,98371.58
2023-04-09T02:43:52.817Z,98374.77
2023-04-09T02:46:20.883Z,98378.98
2023-04-09T02:48:48.890Z,98378.66
2023-04-09T02:51:19.289Z,98375.85
2023-04-09T02:53:49.527Z,98376.07
2023-04-09T02:56:17.378Z,98376.60
2023-04-09T02:58:45.158Z,98374.33
2023-04-09T03:01:13.094Z,98370.45
2023-04-09T03:03:41.052Z,98368.85
2023-04-09T03:06:09.072Z,98370.25
2023-04-09T03:08:39.188Z,98370.54
2023-04-09T03:11:07.052Z,98369.41
2023-04-09T03:13:34.779Z,98367.13
2023-04-09T03:16:07.997Z,98366.21
2023-04-09T03:18:36.472Z,98365.36
2023-04-09T03:21:07.837Z,98366.27
2023-04-09T03:23:37.099Z,98368.83
2023-04-09T03:26:06.521Z,98372.79
2023-04-09T03:28:47.664Z,98374.35
2023-04-09T03:31:15.568Z,98378.83
2023-04-09T03:33:46.540Z,98379.34
2023-04-09T03:36:20.084Z,98376.19
2023-04-09T03:39:16.613Z,98374.39
2023-04-09T03:41:45.010Z,98376.92
2023-04-09T03:44:16.072Z,98375.23
2023-04-09T03:46:57.259Z,98377.92
2023-04-09T03:49:25.688Z,98379.16
2023-04-09T03:51:54.708Z,98381.97
2023-04-09T03:54:24.387Z,98382.86
2023-04-09T03:56:54.456Z,98384.06
2023-04-09T03:59:23.578Z,98379.69
2023-04-09T04:01:51.711Z,98380.91
2023-04-09T04:04:23.420Z,98383.48
2023-04-09T04:06:57.572Z,98379.36
2023-04-09T04:09:38.051Z,98373.60
2023-04-09T04:12:09.629Z,98366.35
2023-04-09T04:14:52.471Z,98366.65
2023-04-09T04:17:29.602Z,98366.77
2023-04-09T04:19:57.442Z,98367.52
2023-04-09T04:22:26.335Z,98366.92
2023-04-09T04:24:56.297Z,98370.45
2023-04-09T04:27:24.393Z,98365.47
2023-04-09T04:29:52.318Z,98369.88
2023-04-09T04:32:41.802Z,98374.09
2023-04-09T04:35:11.333Z,98374.34
2023-04-09T04:37:39.636Z,98377.95
2023-04-09T04:40:08.366Z,98381.79
2023-04-09T04:42:38.784Z,98385.77
2023-04-09T04:45:11.163Z,98391.79
2023-04-09T04:47:44.357Z,98392.31
2023-04-09T04:50:12.165Z,98395.48
2023-04-09T04:52:51.576Z,98393.31
2023-04-09T04:55:20.750Z,98395.76
2023-04-09T04:57:50.445Z,98395.67
2023-04-09T05:00:19.456Z,98397.44
2023-04-09T05:02:48.613Z,98395.20
2023-04-09T05:05:23.409Z,98395.80
2023-04-09T05:07:54.798Z,98395.52
2023-04-09T05:10:23.098Z,98395.72
2023-04-09T05:12:54.008Z,98394.09
2023-04-09T05:15:28.020Z,98398.38
2023-04-09T05:17:56.136Z,98395.70
2023-04-09T05:20:24.083Z,98393.78
2023-04-09T05:23:01.205Z,98396.84
2023-04-09T05:25:32.310Z,98399.73
2023-04-09T05:28:01.215Z,98402.65
2023-04-09T05:30:30.594Z,98403.57
2023-04-09T05:32:59.118Z,98402.73
2023-04-09T05:35:27.813Z,98406.73
2023-04-09T05:37:55.879Z,98406.95
2023-04-09T05:40:24.210Z,98410.98
2023-04-09T05:42:53.987Z,98408.34
2023-04-09T05:45:42.435Z,98412.05
2023-04-09T05:48:10.285Z,98409.75
2023-04-09T05:50:53.440Z,98409.42
2023-04-09T05:53:22.752Z,98414.95
2023-04-09T05:55:50.513Z,98417.44
2023-04-09T05:58:19.354Z,98419.05
2023-04-09T06:00:47.967Z,98417.92
2023-04-09T06:03:15.819Z,98419.90
2023-04-09T06:05:45.147Z,98416.14
2023-04-09T06:08:12.988Z,98412.69
2023-04-09T06:10:41.442Z,98416.39
2023-04-09T06:13:10.169Z,98415.11
2023-04-09T06:15:38.516Z,98421.91
2023-04-09T06:18:06.728Z,98426.15
2023-04-09T06:20:34.734Z,98424.80
2023-04-09T06:23:02.824Z,98424.77
2023-04-09T06:25:33.135Z,98420.33
2023-04-09T06:28:01.138Z,98427.13
2023-04-09T06:30:29.295Z,98424.76
2023-04-09T06:32:57.043Z,98425.62
2023-04-09T06:35:24.817Z,98425.40
2023-04-09T06:37:52.548Z,98429.72
2023-04-09T06:40:22.990Z,98430.55
2023-04-09T06:42:51.314Z,98431.85
2023-04-09T06:45:23.877Z,98437.01
2023-04-09T06:47:51.824Z,98440.95
2023-04-09T06:50:19.951Z,98443.02
2023-04-09T06:52:47.764Z,98439.65
2023-04-09T06:55:18.267Z,98441.64
2023-04-09T06:57:46.233Z,98443.27
2023-04-09T07:00:14.142Z,98442.64
2023-04-09T07:02:42.572Z,98447.48
2023-04-09T07:05:13.276Z,98449.54
2023-04-09T07:07:41.592Z,98453.72
2023-04-09T07:10:19.455Z,98451.98
2023-04-09T07:12:50.203Z,98452.50
2023-04-09T07:15:18.030Z,98452.95
2023-04-09T07:17:48.890Z,98455.46
2023-04-09T07:20:19.297Z,98455.61
2023-04-09T07:22:47.263Z,98452.31
2023-04-09T07:25:21.201Z,98449.17
2023-04-09T07:27:58.614Z,98447.23
2023-04-09T07:30:26.495Z,98448.77
2023-04-09T07:32:54.553Z,98453.80
2023-04-09T07:35:22.315Z,98455.21
2023-04-09T07:37:50.143Z,98454.65
2023-04-09T07:40:18.197Z,98456.86
2023-04-09T07:42:50.863Z,98453.98
2023-04-09T07:45:18.715Z,98453.40
2023-04-09T07:47:49.848Z,98451.83
2023-04-09T07:50:17.678Z,98451.52
2023-04-09T07:52:45.450Z,98454.29
2023-04-09T07:55:16.749Z,98461.43
2023-04-09T07:57:45.295Z,98460.26
2023-04-09T08:00:13.396Z,98463.55
2023-04-09T08:02:41.505Z,98464.27
2023-04-09T08:05:09.857Z,98468.24
2023-04-09T08:07:40.883Z,98465.06
2023-04-09T08:10:08.929Z,98466.92
2023-04-09T08:12:36.801Z,98466.34
2023-04-09T08:15:04.732Z,98463.81
2023-04-09T08:17:32.688Z,98470.19
2023-04-09T08:20:03.093Z,98477.95
2023-04-09T08:22:31.192Z,98478.40
2023-04-09T08:25:00.271Z,98480.04
2023-04-09T08:27:39.062Z,98479.41
2023-04-09T08:30:07.512Z,98481.86
2023-04-09T08:32:35.381Z,98478.38
2023-04-09T08:35:03.329Z,98476.86
2023-04-09T08:37:31.067Z,98481.69
2023-04-09T08:39:58.859Z,98477.97
2023-04-09T08:42:27.425Z,98478.26
2023-04-09T08:44:55.331Z,98480.41
2023-04-09T08:47:23.932Z,98480.23
2023-04-09T08:49:52.976Z,98474.29
2023-04-09T08:52:30.613Z,98477.74
2023-04-09T08:54:58.710Z,98485.04
2023-04-09T08:57:26.902Z,98487.64
2023-04-09T08:59:54.945Z,98483.45
2023-04-09T09:02:25.415Z,98481.41
2023-04-09T09:04:53.575Z,98483.02
2023-04-09T09:07:24.719Z,98483.00
2023-04-09T09:10:12.354Z,98481.54
2023-04-09T09:12:43.529Z,98481.38
2023-04-09T09:15:28.144Z,98480.67
2023-04-09T09:17:57.057Z,98482.11
2023-04-09T09:20:34.153Z,98484.88
2023-04-09T09:23:02.469Z,98489.30
2023-04-09T09:25:30.381Z,98488.19
2023-04-09T09:28:07.061Z,98483.95
2023-04-09T09:30:35.129Z,98485.54
2023-04-09T09:33:07.458Z,98489.98
2023-04-09T09:35:48.699Z,98490.08
2023-04-09T09:38:17.176Z,98486.45
2023-04-09T09:40:45.033Z,98484.25
2023-04-09T09:43:14.529Z,98485.96
2023-04-09T09:45:42.742Z,98486.23
2023-04-09T09:48:11.376Z,98487.16
2023-04-09T09:50:43.240Z,98488.82
2023-04-09T09:53:11.835Z,98482.96
2023-04-09T09:55:40.992Z,98482.16
2023-04-09T09:58:16.394Z,98483.00
2023-04-09T10:00:46.534Z,98478.77
2023-04-09T10:03:15.391Z,98482.20
2023-04-09T10:05:44.854Z,98479.45
2023-04-09T10:08:13.182Z,98482.58
2023-04-09T10:10:47.011Z,98481.05
2023-04-09T10:13:33.844Z,98477.30
2023-04-09T10:16:01.946Z,98476.84
2023-04-09T10:18:30.466Z,98474.00
2023-04-09T10:21:08.377Z,98472.38
2023-04-09T10:23:41.873Z,98469.91
2023-04-09T10:26:10.324Z,98470.62
2023-04-09T10:28:38.475Z,98469.04
2023-04-09T10:31:07.154Z,98466.04
2023-04-09T10:33:49.308Z,98464.00
2023-04-09T10:36:19.074Z,98464.39
2023-04-09T10:38:47.149Z,98462.23
2023-04-09T10:41:16.958Z,98460.59
2023-04-09T10:43:47.133Z,98456.50
2023-04-09T10:46:50.312Z,98456.09
2023-04-09T10:49:25.469Z,98455.00
2023-04-09T10:51:53.633Z,98456.05
2023-04-09T10:54:34.070Z,98455.41
2023-04-09T10:57:12.456Z,98458.05
2023-04-09T10:59:41.368Z,98453.52
2023-04-09T11:02:10.625Z,98450.52
2023-04-09T11:05:12.700Z,98451.59
2023-04-09T11:08:10.063Z,98447.29
2023-04-09T11:10:58.041Z,98443.98
2023-04-09T11:13:46.392Z,98443.96
2023-04-09T11:16:26.570Z,98448.85
2023-04-09T11:19:16.187Z,98450.67
2023-04-09T11:21:47.843Z,98446.17
2023-04-09T11:24:18.778Z,98443.89
2023-04-09T11:27:07.155Z,98440.91
2023-04-09T11:29:46.671Z,98438.72
2023-04-09T11:32:15.431Z,98446.22
2023-04-09T11:34:55.632Z,98446.18
2023-04-09T11:37:44.025Z,98447.02
2023-04-09T11:40:40.912Z,98440.58
2023-04-09T11:43:29.182Z,98438.89
2023-04-09T11:46:09.066Z,98437.36
2023-04-09T11:49:00.100Z,98437.58
2023-04-09T11:51:33.858Z,98436.79
2023-04-09T11:54:20.503Z,98436.95
2023-04-09T11:57:25.891Z,98432.58
2023-04-09T12:00:14.161Z,98428.13
2023-04-09T12:03:02.622Z,98426.21
2023-04-09T12:05:51.372Z,98427.96
2023-04-09T12:08:50.822Z,98429.85
2023-04-09T12:11:50.831Z,98427.40
2023-04-09T12:14:24.538Z,98427.36
2023-04-09T12:16:52.620Z,98426.67
2023-04-09T12:19:20.801Z,98421.77
2023-04-09T12:21:55.403Z,98420.56
2023-04-09T12:24:31.212Z,98420.59
2023-04-09T12:27:02.212Z,98424.14
2023-04-09T12:29:30.311Z,98422.17
2023-04-09T12:32:01.678Z,98425.83
2023-04-09T12:34:50.018Z,98425.00
2023-04-09T12:37:31.232Z,98424.69
2023-04-09T12:39:59.130Z,98426.77
2023-04-09T12:42:32.555Z,98425.44
2023-04-09T12:45:02.846Z,98422.83
2023-04-09T12:47:30.917Z,98422.98
2023-04-09T12:50:01.004Z,98428.28
2023-04-09T12:52:34.924Z,98424.14
2023-04-09T12:55:05.930Z,98427.34
2023-04-09T12:57:39.303Z,98417.04
2023-04-09T13:00:07.738Z,98417.31
2023-04-09T13:02:38.443Z,98418.83
2023-04-09T13:05:13.269Z,98416.60
2023-04-09T13:07:46.650Z,98411.77
2023-04-09T13:10:14.743Z,98410.38
2023-04-09T13:12:42.574Z,98412.34
2023-04-09T13:15:10.803Z,98411.05
2023-04-09T13:17:38.844Z,98413.38
2023-04-09T13:20:07.134Z,98412.04
2023-04-09T13:22:37.756Z,98411.59
2023-04-09T13:25:07.247Z,98414.83
2023-04-09T13:27:35.167Z,98416.86
2023-04-09T13:30:02.985Z,98416.06
2023-04-09T13:32:31.704Z,98418.99
2023-04-09T13:34:59.873Z,98413.19
2023-04-09T13:37:27.681Z,98414.83
2023-04-09T13:39:58.171Z,98415.50
2023-04-09T13:42:25.989Z,98417.61
2023-04-09T13:44:53.936Z,98420.64
2023-04-09T13:47:22.025Z,98421.78
2023-04-09T13:49:49.885Z,98423.44
2023-04-09T13:52:17.656Z,98421.02
2023-04-09T13:54:45.815Z,98419.84
2023-04-09T13:57:16.993Z,98417.64
2023-04-09T13:59:54.075Z,98418.50
2023-04-09T14:02:22.427Z,98421.79
2023-04-09T14:04:50.379Z,98419.49
2023-04-09T14:07:18.354Z,98418.10
2023-04-09T14:09:46.102Z,98414.80
2023-04-09T14:12:13.982Z,98412.15
2023-04-09T14:14:55.238Z,98408.86
2023-04-09T14:17:33.196Z,98409.77
2023-04-09T14:20:01.380Z,98407.45
2023-04-09T14:22:29.644Z,98405.30
2023-04-09T14:25:09.896Z,98410.20
2023-04-09T14:27:37.821Z,98410.16
2023-04-09T14:30:05.919Z,98407.35
2023-04-09T14:32:33.851Z,98406.16
2023-04-09T14:35:07.470Z,98407.54
2023-04-09T14:37:47.884Z,98405.02
2023-04-09T14:40:16.043Z,98406.86
2023-04-09T14:42:46.052Z,98409.27
2023-04-09T14:45:14.050Z,98406.92
2023-04-09T14:47:42.038Z,98410.09
2023-04-09T14:50:13.134Z,98407.20
2023-04-09T14:52:41.000Z,98404.27
2023-04-09T14:55:15.085Z,98405.30
2023-04-09T14:57:43.135Z,98408.69
2023-04-09T15:00:12.067Z,98410.64
2023-04-09T15:02:47.737Z,98411.05
2023-04-09T15:05:16.123Z,98413.70
2023-04-09T15:07:43.831Z,98413.06
2023-04-09T15:10:11.734Z,98412.48
2023-04-09T15:12:39.767Z,98411.06
2023-04-09T15:15:08.197Z,98407.61
2023-04-09T15:17:39.222Z,98406.47
2023-04-09T15:20:10.083Z,98403.91
2023-04-09T15:22:40.451Z,98401.48
2023-04-09T15:25:08.620Z,98401.69
2023-04-09T15:27:36.385Z,98397.54
2023-04-09T15:30:04.488Z,98399.27
2023-04-09T15:32:53.027Z,98400.05
2023-04-09T15:35:24.107Z,98401.35
2023-04-09T15:37:59.452Z,98404.63
2023-04-09T15:40:32.225Z,98402.84
2023-04-09T15:43:00.091Z,98404.27
2023-04-09T15:45:28.114Z,98406.70
2023-04-09T15:48:16.916Z,98407.70
2023-04-09T15:50:44.890Z,98404.27
2023-04-09T15:53:15.705Z,98405.36
2023-04-09T15:55:43.736Z,98408.07
2023-04-09T15:58:11.706Z,98406.34
2023-04-09T16:00:39.579Z,98408.73
2023-04-09T16:03:07.367Z,98409.73
2023-04-09T16:05:35.158Z,98409.30
2023-04-09T16:08:03.003Z,98407.70
2023-04-09T16:10:31.126Z,98409.92
2023-04-09T16:12:59.226Z,98410.80
2023-04-09T16:15:27.286Z,98412.52
2023-04-09T16:17:55.627Z,98411.23
2023-04-09T16:20:23.365Z,98413.59
2023-04-09T16:22:51.273Z,98417.05
2023-04-09T16:25:19.060Z,98412.46
2023-04-09T16:27:46.982Z,98416.24
2023-04-09T16:30:14.997Z,98419.22
2023-04-09T16:32:43.138Z,98422.54
2023-04-09T16:35:10.977Z,98425.31
2023-04-09T16:37:38.952Z,98427.25
2023-04-09T16:40:07.710Z,98427.37
2023-04-09T16:42:35.814Z,98427.53
2023-04-09T16:45:07.092Z,98426.23
2023-04-09T16:47:35.629Z,98429.11
2023-04-09T16:50:03.779Z,98430.80
2023-04-09T16:52:31.537Z,98429.85
2023-04-09T16:54:59.535Z,98436.66
2023-04-09T16:57:27.284Z,98432.41
2023-04-09T16:59:55.623Z,98435.08
2023-04-09T17:02:26.501Z,98441.39
2023-04-09T17:04:54.745Z,98441.71
2023-04-09T17:07:25.423Z,98442.78
2023-04-09T17:09:53.814Z,98446.58
2023-04-09T17:12:22.064Z,98448.73
2023-04-09T17:14:50.044Z,98454.39
2023-04-09T17:17:18.340Z,98451.58
2023-04-09T17:19:46.146Z,98449.89
2023-04-09T17:22:14.443Z,98451.92
2023-04-09T17:24:42.381Z,98453.98
2023-04-09T17:27:10.321Z,98451.27
2023-04-09T17:29:38.145Z,98450.75
2023-04-09T17:32:06.319Z,98457.92
2023-04-09T17:34:34.167Z,98463.52
2023-04-09T17:37:02.053Z,98469.92
2023-04-09T17:39:29.994Z,98474.12
2023-04-09T17:41:57.831Z,98473.09
2023-04-09T17:44:25.803Z,98473.50
2023-04-09T17:46:54.062Z,98476.10
2023-04-09T17:49:21.848Z,98477.67
2023-04-09T17:51:50.034Z,98476.95
2023-04-09T17:54:19.297Z,98478.96
2023-04-09T17:56:47.445Z,98484.42
2023-04-09T17:59:15.611Z,98485.69
2023-04-09T18:01:43.820Z,98489.75
2023-04-09T18:04:12.102Z,98485.98
2023-04-09T18:06:40.823Z,98488.45
2023-04-09T18:09:08.882Z,98492.14
2023-04-09T18:11:37.759Z,98495.15
2023-04-09T18:14:06.012Z,98495.54
2023-04-09T18:16:37.750Z,98497.98
2023-04-09T18:19:06.385Z,98501.85
2023-04-09T18:21:34.623Z,98500.35
2023-04-09T18:24:02.965Z,98507.63
2023-04-09T18:26:31.308Z,98512.45
2023-04-09T18:29:01.007Z,98510.13
2023-04-09T18:31:31.967Z,98509.31
2023-04-09T18:34:00.141Z,98507.48
2023-04-09T18:36:28.035Z,98511.34
2023-04-09T18:38:56.862Z,98514.27
2023-04-09T18:41:25.428Z,98515.66
2023-04-09T18:43:53.598Z,98516.89
2023-04-09T18:46:22.056Z,98517.77
2023-04-09T18:48:50.385Z,98521.73
2023-04-09T18:51:20.718Z,98522.21
2023-04-09T18:53:48.979Z,98526.05
2023-04-09T18:56:17.597Z,98527.45
2023-04-09T18:58:46.044Z,98528.36
2023-04-09T19:01:17.690Z,98526.34
2023-04-09T19:03:46.393Z,98525.98
2023-04-09T19:06:16.386Z,98525.30
2023-04-09T19:08:45.302Z,98528.23
2023-04-09T19:11:13.911Z,98528.61
2023-04-09T19:13:42.039Z,98526.20
2023-04-09T19:16:13.410Z,98524.60
2023-04-09T19:18:44.581Z,98522.98
2023-04-09T19:21:12.742Z,98525.88
2023-04-09T19:23:40.885Z,98527.71
2023-04-09T19:26:16.321Z,98527.64
2023-04-09T19:28:47.663Z,98528.02
2023-04-09T19:31:15.928Z,98529.49
2023-04-09T19:33:44.059Z,98531.00
2023-04-09T19:36:12.501Z,98534.42
2023-04-09T19:38:40.716Z,98532.66
2023-04-09T19:41:08.862Z,98536.74
2023-04-09T19:43:39.212Z,98537.44
2023-04-09T19:46:07.764Z,98535.92
2023-04-09T19:48:37.044Z,98536.94
2023-04-09T19:51:05.302Z,98540.57
2023-04-09T19:53:36.243Z,98541.38
2023-04-09T19:56:04.443Z,98540.86
2023-04-09T19:58:32.470Z,98542.40
2023-04-09T20:01:00.690Z,98540.53
2023-04-09T20:03:28.682Z,98543.69
2023-04-09T20:05:56.809Z,98547.61
2023-04-09T20:08:25.036Z,98545.72
2023-04-09T20:10:52.831Z,98547.05
2023-04-09T20:13:21.072Z,98546.17
2023-04-09T20:15:49.172Z,98544.10
2023-04-09T20:18:20.133Z,98543.80
2023-04-09T20:20:48.218Z,98547.45
2023-04-09T20:23:16.151Z,98545.79
2023-04-09T20:25:44.043Z,98544.41
2023-04-09T20:28:14.566Z,98541.23
2023-04-09T20:30:45.281Z,98541.48
2023-04-09T20:33:13.287Z,98538.27
2023-04-09T20:35:41.132Z,98535.20
2023-04-09T20:38:09.201Z,98531.33
2023-04-09T20:40:37.079Z,98533.61
2023-04-09T20:43:04.937Z,98531.77
2023-04-09T20:45:32.831Z,98526.15
2023-04-09T20:48:00.671Z,98531.31
2023-04-09T20:50:28.511Z,98535.35
2023-04-09T20:52:56.389Z,98540.00
2023-04-09T20:55:24.900Z,98541.99
2023-04-09T20:57:53.830Z,98543.58
2023-04-09T21:00:22.035Z,98539.89
2023-04-09T21:02:51.340Z,98541.73
2023-04-09T21:05:24.036Z,98543.83
2023-04-09T21:07:52.751Z,98540.25
2023-04-09T21:10:21.342Z,98540.61
2023-04-09T21:12:49.106Z,98541.48
2023-04-09T21:15:17.168Z,98537.56
2023-04-09T21:17:45.017Z,98537.42
2023-04-09T21:20:12.900Z,98539.73
2023-04-09T21:22:40.759Z,98538.77
2023-04-09T21:25:08.808Z,98535.59
2023-04-09T21:27:36.709Z,98537.07
2023-04-09T21:30:04.728Z,98537.99
2023-04-09T21:32:32.569Z,98541.70
2023-04-09T21:35:00.376Z,98539.36
2023-04-09T21:37:28.280Z,98542.71
2023-04-09T21:39:56.119Z,98540.73
2023-04-09T21:42:23.919Z,98538.05
2023-04-09T21:44:51.804Z,98539.85
2023-04-09T21:47:19.570Z,98541.98
2023-04-09T21:49:47.256Z,98543.61
2023-04-09T21:52:15.261Z,98542.80
2023-04-09T21:54:43.425Z,98549.18
2023-04-09T21:57:11.483Z,98544.60
2023-04-09T21:59:41.890Z,98542.96
2023-04-09T22:02:09.774Z,98548.72
2023-04-09T22:04:40.159Z,98544.19
2023-04-09T22:07:08.802Z,98547.55
2023-04-09T22:09:39.696Z,98540.76
2023-04-09T22:12:10.189Z,98548.55
2023-04-09T22:14:40.100Z,98550.38
2023-04-09T22:17:09.524Z,98551.45
2023-04-09T22:19:37.264Z,98549.92
2023-04-09T22:22:07.920Z,98551.88
2023-04-09T22:24:35.746Z,98551.28
2023-04-09T22:27:03.513Z,98550.80
2023-04-09T22:29:31.440Z,98545.83
2023-04-09T22:31:59.226Z,98539.63
2023-04-09T22:34:27.034Z,98543.11
2023-04-09T22:36:54.802Z,98545.54
2023-04-09T22:39:22.732Z,98547.67
2023-04-09T22:41:50.460Z,98551.46
2023-04-09T22:44:18.217Z,98550.11
2023-04-09T22:46:46.022Z,98546.00
2023-04-09T22:49:13.807Z,98550.82
2023-04-09T22:51:44.139Z,98552.17
2023-04-09T22:54:11.972Z,98554.02
2023-04-09T22:56:39.766Z,98553.69
2023-04-09T22:59:07.842Z,98551.22
2023-04-09T23:01:36.049Z,98549.11
2023-04-09T23:04:04.023Z,98547.91
2023-04-09T23:06:31.944Z,98546.52
2023-04-09T23:08:59.854Z,98544.06
2023-04-09T23:11:27.763Z,98539.36
2023-04-09T23:13:55.497Z,98534.54
2023-04-09T23:16:23.500Z,98534.48
2023-04-09T23:18:51.524Z,98529.67
2023-04-09T23:21:19.714Z,98528.89
2023-04-09T23:23:52.433Z,98528.30
2023-04-09T23:26:23.087Z,98533.52
2023-04-09T23:28:54.238Z,98529.48
2023-04-09T23:31:27.690Z,98531.80
2023-04-09T23:33:56.016Z,98531.21
2023-04-09T23:36:23.873Z,98526.44
2023-04-09T23:39:04.974Z,98522.89
2023-04-09T23:41:35.764Z,98524.71
2023-04-09T23:44:04.055Z,98524.72
2023-04-09T23:46:34.618Z,98524.59
2023-04-09T23:49:02.763Z,98523.60
2023-04-09T23:51:30.599Z,98519.67
2023-04-09T23:53:58.415Z,98523.59
2023-04-09T23:56:27.951Z,98518.91
2023-04-09T23:59:06.311Z,98517.65
